SLSA/SBL METAR and TAF weather

Enter ICAO airport designator
Station Type Date Time Source
SLSA METAR 2019/12/13 17:00 UTC NOAA

SLSA 131700Z 31005KT 8000 VCSH SCT015 FEW023CB BKN070 OVC200 27/24 Q1008


Station Type Date Time Source
SLSA Decoded METAR 2019/12/13 17:00 UTC NOAA

Santa Ana, Bolivia (SLSA) 13-46S 065-26W
Dec 13, 2019 - 12:00 PM EST / 2019.12.13 1700 UTC
Wind: from the NW (310 degrees) at 6 MPH (5 KT):0
Visibility: 4 mile(s):0
Sky conditions: overcast
Weather: showers in the vicinity; Cumulonimbus clouds observed
Temperature: 80 F (27 C)
Dew Point: 75 F (24 C)
Relative Humidity: 83%
Pressure (altimeter): 29.77 in. Hg (1008 hPa)
ob: SLSA 131700Z 31005KT 8000 VCSH SCT015 FEW023CB BKN070 OVC200 27/24 Q1008
cycle: 17

Station Type Date Time Source
SLSA TAF 2009/01/07 11:00 UTC NOAA

METAR SLSA 071100Z 00000KT 9999 FEW020 BKN080 26/24 Q1009

Example: see airport list